Date,TemperatureHighF,TemperatureAvgF,TemperatureLowF,DewpointHighF,DewpointAvgF,DewpointLowF,HumidityHigh,HumidityAvg,HumidityLow,PressureMaxIn,PressureMinIn,WindSpeedMaxMPH,WindSpeedAvgMPH,GustSpeedMaxMPH,PrecipitationSumIn
2013-2-1,50,44,32,34,24,16,65,47,26,30.31,30.06,6,2,8,0.00
2013-2-2,56,41,26,39,24,18,81,55,28,30.32,30.05,4,1,7,0.00
2013-2-3,61,48,39,40,36,32,89,65,39,30.05,29.87,6,2,12,0.00
2013-2-4,51,42,34,36,32,29,86,68,47,30.09,29.99,2,0,3,0.00
2013-2-5,66,50,34,51,42,32,95,78,53,30.00,29.90,4,1,7,0.00
2013-2-6,70,54,41,52,43,38,98,72,32,30.11,29.96,2,0,4,0.00
2013-2-7,51,47,44,49,46,40,100,94,82,30.10,29.81,6,1,7,2.64
2013-2-8,62,50,43,53,47,43,98,89,71,30.06,29.83,4,1,9,0.00
2013-2-9,62,46,33,44,37,32,97,74,39,30.26,30.05,3,0,6,0.00
2013-2-10,66,53,38,56,46,35,97,77,56,30.34,30.06,8,2,12,0.22
2013-2-11,66,59,54,65,58,54,99,98,91,30.14,29.99,7,2,11,1.10
2013-2-12,63,54,48,54,51,46,99,88,53,30.07,29.81,2,0,3,0.76
2013-2-13,58,51,46,56,49,43,100,94,81,29.86,29.68,6,1,7,0.26
2013-2-14,52,44,36,43,40,35,96,85,67,30.03,29.85,2,0,3,0.00
2013-2-15,64,46,32,46,38,31,98,78,41,30.07,29.91,3,0,7,0.00
2013-2-16,51,41,33,41,33,19,96,75,40,30.03,29.80,5,1,10,0.12
2013-2-17,47,37,28,26,20,17,74,52,31,30.25,30.03,5,2,10,0.00
2013-2-18,57,42,26,32,27,23,89,59,35,30.35,30.18,4,1,7,0.00
2013-2-19,55,45,39,51,40,30,98,86,59,30.18,29.93,3,0,5,0.25
2013-2-20,60,45,31,33,29,26,85,57,28,30.11,30.00,3,1,5,0.00
2013-2-22,44,42,40,44,41,40,100,97,96,30.12,30.04,1,0,5,0.78
2013-2-23,46,43,40,45,43,39,99,99,98,30.04,29.79,2,0,4,0.58
2013-2-24,70,53,44,51,45,41,99,78,37,29.96,29.83,3,1,5,0.00
2013-2-25,50,46,42,43,39,34,95,78,58,30.02,29.87,8,1,9,0.01
2013-2-26,53,45,39,52,44,38,99,97,93,29.91,29.53,3,1,8,0.19
2013-2-27,62,50,40,45,42,37,97,76,51,29.84,29.72,4,2,12,0.01
2013-2-28,56,48,40,43,37,30,83,67,50,29.89,29.75,5,2,13,0.20